sensor_id;sensor_type;location;lat;lon;timestamp;P1;durP1;ratioP1;P2;durP2;ratioP2
20441;SDS011;10380;52.102;20.614;2024-01-30T00:01:56;22.97;;;12.07;;
20441;SDS011;10380;52.102;20.614;2024-01-30T00:04:23;22.50;;;12.43;;
20441;SDS011;10380;52.102;20.614;2024-01-30T00:06:50;24.67;;;11.67;;
20441;SDS011;10380;52.102;20.614;2024-01-30T00:09:19;22.20;;;12.50;;
20441;SDS011;10380;52.102;20.614;2024-01-30T00:11:46;21.10;;;12.20;;
20441;SDS011;10380;52.102;20.614;2024-01-30T00:14:13;21.70;;;12.23;;
20441;SDS011;10380;52.102;20.614;2024-01-30T00:16:41;24.93;;;12.73;;
20441;SDS011;10380;52.102;20.614;2024-01-30T00:19:08;19.47;;;11.80;;
20441;SDS011;10380;52.102;20.614;2024-01-30T00:21:35;23.23;;;12.53;;
20441;SDS011;10380;52.102;20.614;2024-01-30T00:24:02;24.60;;;12.73;;
20441;SDS011;10380;52.102;20.614;2024-01-30T00:26:31;20.27;;;13.00;;
20441;SDS011;10380;52.102;20.614;2024-01-30T00:28:58;22.77;;;12.03;;
20441;SDS011;10380;52.102;20.614;2024-01-30T00:31:25;19.10;;;11.37;;
20441;SDS011;10380;52.102;20.614;2024-01-30T00:33:52;24.57;;;12.73;;
20441;SDS011;10380;52.102;20.614;2024-01-30T00:36:19;21.60;;;12.93;;
20441;SDS011;10380;52.102;20.614;2024-01-30T00:38:47;20.40;;;12.00;;
20441;SDS011;10380;52.102;20.614;2024-01-30T00:41:14;22.43;;;12.57;;
20441;SDS011;10380;52.102;20.614;2024-01-30T00:43:43;21.07;;;12.80;;
20441;SDS011;10380;52.102;20.614;2024-01-30T00:46:11;21.83;;;11.97;;
20441;SDS011;10380;52.102;20.614;2024-01-30T00:48:38;19.33;;;12.33;;
20441;SDS011;10380;52.102;20.614;2024-01-30T00:51:05;22.50;;;12.80;;
20441;SDS011;10380;52.102;20.614;2024-01-30T00:53:32;22.83;;;11.67;;
20441;SDS011;10380;52.102;20.614;2024-01-30T00:56:00;21.87;;;12.90;;
20441;SDS011;10380;52.102;20.614;2024-01-30T00:58:27;23.07;;;12.03;;
20441;SDS011;10380;52.102;20.614;2024-01-30T01:00:54;25.70;;;13.80;;
20441;SDS011;10380;52.102;20.614;2024-01-30T01:03:22;24.83;;;12.97;;
20441;SDS011;10380;52.102;20.614;2024-01-30T01:05:49;22.10;;;13.97;;
20441;SDS011;10380;52.102;20.614;2024-01-30T01:08:16;23.10;;;13.07;;
20441;SDS011;10380;52.102;20.614;2024-01-30T01:10:44;23.33;;;13.00;;
20441;SDS011;10380;52.102;20.614;2024-01-30T01:13:11;27.50;;;14.53;;
20441;SDS011;10380;52.102;20.614;2024-01-30T01:15:39;22.70;;;13.23;;
20441;SDS011;10380;52.102;20.614;2024-01-30T01:18:06;23.83;;;13.30;;
20441;SDS011;10380;52.102;20.614;2024-01-30T01:20:33;22.80;;;14.03;;
20441;SDS011;10380;52.102;20.614;2024-01-30T01:23:00;24.23;;;12.93;;
20441;SDS011;10380;52.102;20.614;2024-01-30T01:25:27;27.83;;;13.87;;
20441;SDS011;10380;52.102;20.614;2024-01-30T01:27:54;23.73;;;14.03;;
20441;SDS011;10380;52.102;20.614;2024-01-30T01:30:22;23.77;;;13.20;;
20441;SDS011;10380;52.102;20.614;2024-01-30T01:32:49;29.90;;;14.77;;
20441;SDS011;10380;52.102;20.614;2024-01-30T01:35:24;27.60;;;14.60;;
20441;SDS011;10380;52.102;20.614;2024-01-30T01:37:52;27.77;;;14.40;;
20441;SDS011;10380;52.102;20.614;2024-01-30T01:40:26;26.77;;;12.90;;
20441;SDS011;10380;52.102;20.614;2024-01-30T01:42:54;27.13;;;14.87;;
20441;SDS011;10380;52.102;20.614;2024-01-30T01:45:22;27.10;;;15.23;;
20441;SDS011;10380;52.102;20.614;2024-01-30T01:47:53;26.77;;;14.33;;
20441;SDS011;10380;52.102;20.614;2024-01-30T01:50:21;24.40;;;15.07;;
20441;SDS011;10380;52.102;20.614;2024-01-30T01:52:49;26.57;;;14.63;;
20441;SDS011;10380;52.102;20.614;2024-01-30T01:55:17;22.43;;;13.23;;
20441;SDS011;10380;52.102;20.614;2024-01-30T01:57:51;24.20;;;14.07;;
20441;SDS011;10380;52.102;20.614;2024-01-30T02:00:20;27.50;;;13.80;;
20441;SDS011;10380;52.102;20.614;2024-01-30T02:02:48;28.33;;;14.73;;
20441;SDS011;10380;52.102;20.614;2024-01-30T02:05:17;30.57;;;15.70;;
20441;SDS011;10380;52.102;20.614;2024-01-30T02:07:44;27.40;;;14.93;;
20441;SDS011;10380;52.102;20.614;2024-01-30T02:10:11;26.27;;;14.63;;
20441;SDS011;10380;52.102;20.614;2024-01-30T02:12:40;19.80;;;12.77;;
20441;SDS011;10380;52.102;20.614;2024-01-30T02:15:07;29.47;;;14.70;;
20441;SDS011;10380;52.102;20.614;2024-01-30T02:17:34;29.30;;;15.30;;
20441;SDS011;10380;52.102;20.614;2024-01-30T02:20:02;27.57;;;14.30;;
20441;SDS011;10380;52.102;20.614;2024-01-30T02:22:30;23.17;;;14.17;;
20441;SDS011;10380;52.102;20.614;2024-01-30T02:24:58;30.93;;;14.43;;
20441;SDS011;10380;52.102;20.614;2024-01-30T02:27:26;23.63;;;12.93;;
20441;SDS011;10380;52.102;20.614;2024-01-30T02:29:54;28.27;;;14.33;;
20441;SDS011;10380;52.102;20.614;2024-01-30T02:32:21;31.50;;;15.30;;
20441;SDS011;10380;52.102;20.614;2024-01-30T02:34:48;23.47;;;14.07;;
20441;SDS011;10380;52.102;20.614;2024-01-30T02:37:16;26.73;;;14.30;;
20441;SDS011;10380;52.102;20.614;2024-01-30T02:39:43;26.70;;;14.90;;
20441;SDS011;10380;52.102;20.614;2024-01-30T02:42:10;26.20;;;14.50;;
20441;SDS011;10380;52.102;20.614;2024-01-30T02:44:38;25.90;;;14.20;;
20441;SDS011;10380;52.102;20.614;2024-01-30T02:47:05;29.83;;;14.77;;
20441;SDS011;10380;52.102;20.614;2024-01-30T02:49:33;27.10;;;14.63;;
20441;SDS011;10380;52.102;20.614;2024-01-30T02:52:00;25.37;;;14.10;;
20441;SDS011;10380;52.102;20.614;2024-01-30T02:54:27;29.57;;;14.23;;
20441;SDS011;10380;52.102;20.614;2024-01-30T02:56:57;25.30;;;14.13;;
20441;SDS011;10380;52.102;20.614;2024-01-30T02:59:24;23.87;;;13.47;;
20441;SDS011;10380;52.102;20.614;2024-01-30T03:01:51;26.47;;;14.07;;
20441;SDS011;10380;52.102;20.614;2024-01-30T03:04:18;26.53;;;13.30;;
20441;SDS011;10380;52.102;20.614;2024-01-30T03:06:45;25.67;;;13.50;;
20441;SDS011;10380;52.102;20.614;2024-01-30T03:09:16;24.97;;;13.87;;
20441;SDS011;10380;52.102;20.614;2024-01-30T03:11:46;25.10;;;14.33;;
20441;SDS011;10380;52.102;20.614;2024-01-30T03:14:14;23.70;;;14.80;;
20441;SDS011;10380;52.102;20.614;2024-01-30T03:16:41;28.87;;;14.83;;
20441;SDS011;10380;52.102;20.614;2024-01-30T03:19:08;26.07;;;14.00;;
20441;SDS011;10380;52.102;20.614;2024-01-30T03:21:36;26.97;;;13.80;;
20441;SDS011;10380;52.102;20.614;2024-01-30T03:24:03;23.33;;;12.83;;
20441;SDS011;10380;52.102;20.614;2024-01-30T03:26:30;28.67;;;14.97;;
20441;SDS011;10380;52.102;20.614;2024-01-30T03:28:57;23.50;;;13.07;;
20441;SDS011;10380;52.102;20.614;2024-01-30T03:31:24;26.90;;;14.53;;
20441;SDS011;10380;52.102;20.614;2024-01-30T03:33:52;23.10;;;13.40;;
20441;SDS011;10380;52.102;20.614;2024-01-30T03:36:20;18.60;;;12.77;;
20441;SDS011;10380;52.102;20.614;2024-01-30T03:38:47;28.53;;;14.57;;
20441;SDS011;10380;52.102;20.614;2024-01-30T03:41:14;27.37;;;14.03;;
20441;SDS011;10380;52.102;20.614;2024-01-30T03:43:41;28.40;;;14.37;;
20441;SDS011;10380;52.102;20.614;2024-01-30T03:46:09;26.43;;;13.83;;
20441;SDS011;10380;52.102;20.614;2024-01-30T03:48:36;24.23;;;13.37;;
20441;SDS011;10380;52.102;20.614;2024-01-30T03:51:03;25.73;;;14.57;;
20441;SDS011;10380;52.102;20.614;2024-01-30T03:53:31;25.00;;;12.10;;
20441;SDS011;10380;52.102;20.614;2024-01-30T03:55:58;23.60;;;13.10;;
20441;SDS011;10380;52.102;20.614;2024-01-30T03:58:25;26.30;;;12.60;;
20441;SDS011;10380;52.102;20.614;2024-01-30T04:00:52;25.50;;;14.20;;
20441;SDS011;10380;52.102;20.614;2024-01-30T04:03:19;27.80;;;13.83;;
20441;SDS011;10380;52.102;20.614;2024-01-30T04:05:47;24.43;;;14.27;;
20441;SDS011;10380;52.102;20.614;2024-01-30T04:08:14;28.23;;;13.23;;
20441;SDS011;10380;52.102;20.614;2024-01-30T04:10:42;24.23;;;14.03;;
20441;SDS011;10380;52.102;20.614;2024-01-30T04:13:09;26.13;;;13.77;;
20441;SDS011;10380;52.102;20.614;2024-01-30T04:15:38;23.77;;;11.60;;
20441;SDS011;10380;52.102;20.614;2024-01-30T04:18:05;25.97;;;13.60;;
20441;SDS011;10380;52.102;20.614;2024-01-30T04:20:33;28.23;;;14.97;;
20441;SDS011;10380;52.102;20.614;2024-01-30T04:23:00;26.80;;;13.70;;
20441;SDS011;10380;52.102;20.614;2024-01-30T04:25:27;24.40;;;13.23;;
20441;SDS011;10380;52.102;20.614;2024-01-30T04:27:55;24.83;;;13.03;;
20441;SDS011;10380;52.102;20.614;2024-01-30T04:30:21;22.13;;;12.83;;
20441;SDS011;10380;52.102;20.614;2024-01-30T04:32:49;24.67;;;13.10;;
20441;SDS011;10380;52.102;20.614;2024-01-30T04:35:16;23.80;;;12.53;;
20441;SDS011;10380;52.102;20.614;2024-01-30T04:37:43;25.13;;;14.23;;
20441;SDS011;10380;52.102;20.614;2024-01-30T04:40:10;27.63;;;12.80;;
20441;SDS011;10380;52.102;20.614;2024-01-30T04:42:37;26.50;;;13.83;;
20441;SDS011;10380;52.102;20.614;2024-01-30T04:45:05;24.57;;;13.37;;
20441;SDS011;10380;52.102;20.614;2024-01-30T04:47:35;24.43;;;12.97;;
20441;SDS011;10380;52.102;20.614;2024-01-30T04:50:02;26.13;;;12.57;;
20441;SDS011;10380;52.102;20.614;2024-01-30T04:52:31;21.93;;;12.53;;
20441;SDS011;10380;52.102;20.614;2024-01-30T04:54:59;28.07;;;13.73;;
20441;SDS011;10380;52.102;20.614;2024-01-30T04:57:27;23.77;;;12.37;;
20441;SDS011;10380;52.102;20.614;2024-01-30T04:59:54;28.07;;;12.83;;
20441;SDS011;10380;52.102;20.614;2024-01-30T05:02:21;24.20;;;12.93;;
20441;SDS011;10380;52.102;20.614;2024-01-30T05:04:49;21.17;;;12.47;;
20441;SDS011;10380;52.102;20.614;2024-01-30T05:07:16;25.03;;;12.50;;
20441;SDS011;10380;52.102;20.614;2024-01-30T05:09:44;26.30;;;14.03;;
20441;SDS011;10380;52.102;20.614;2024-01-30T05:12:11;24.20;;;13.43;;
20441;SDS011;10380;52.102;20.614;2024-01-30T05:14:38;25.47;;;13.90;;
20441;SDS011;10380;52.102;20.614;2024-01-30T05:17:06;19.80;;;12.73;;
20441;SDS011;10380;52.102;20.614;2024-01-30T05:19:35;30.23;;;12.80;;
20441;SDS011;10380;52.102;20.614;2024-01-30T05:22:03;21.90;;;11.30;;
20441;SDS011;10380;52.102;20.614;2024-01-30T05:24:31;27.63;;;13.73;;
20441;SDS011;10380;52.102;20.614;2024-01-30T05:26:58;28.50;;;12.80;;
20441;SDS011;10380;52.102;20.614;2024-01-30T05:29:26;26.23;;;12.90;;
20441;SDS011;10380;52.102;20.614;2024-01-30T05:31:53;30.03;;;13.63;;
20441;SDS011;10380;52.102;20.614;2024-01-30T05:34:20;25.47;;;11.83;;
20441;SDS011;10380;52.102;20.614;2024-01-30T05:36:47;21.37;;;12.37;;
20441;SDS011;10380;52.102;20.614;2024-01-30T05:39:14;20.50;;;10.87;;
20441;SDS011;10380;52.102;20.614;2024-01-30T05:41:41;19.30;;;10.90;;
20441;SDS011;10380;52.102;20.614;2024-01-30T05:44:08;24.50;;;11.83;;
20441;SDS011;10380;52.102;20.614;2024-01-30T05:46:36;25.10;;;11.30;;
20441;SDS011;10380;52.102;20.614;2024-01-30T05:49:03;22.43;;;12.70;;
20441;SDS011;10380;52.102;20.614;2024-01-30T05:51:30;25.03;;;11.60;;
20441;SDS011;10380;52.102;20.614;2024-01-30T05:53:58;22.47;;;12.70;;
20441;SDS011;10380;52.102;20.614;2024-01-30T05:56:25;24.50;;;13.10;;
20441;SDS011;10380;52.102;20.614;2024-01-30T05:58:52;22.17;;;12.27;;
20441;SDS011;10380;52.102;20.614;2024-01-30T06:01:20;20.37;;;12.60;;
20441;SDS011;10380;52.102;20.614;2024-01-30T06:03:47;26.00;;;12.97;;
20441;SDS011;10380;52.102;20.614;2024-01-30T06:06:15;24.33;;;12.63;;
20441;SDS011;10380;52.102;20.614;2024-01-30T06:08:42;22.50;;;12.10;;
20441;SDS011;10380;52.102;20.614;2024-01-30T06:11:10;23.77;;;12.10;;
20441;SDS011;10380;52.102;20.614;2024-01-30T06:13:38;22.83;;;13.40;;
20441;SDS011;10380;52.102;20.614;2024-01-30T06:16:08;22.03;;;11.83;;
20441;SDS011;10380;52.102;20.614;2024-01-30T06:18:36;23.40;;;12.87;;
20441;SDS011;10380;52.102;20.614;2024-01-30T06:21:04;20.80;;;12.07;;
20441;SDS011;10380;52.102;20.614;2024-01-30T06:23:31;23.10;;;12.03;;
20441;SDS011;10380;52.102;20.614;2024-01-30T06:26:00;20.27;;;12.07;;
20441;SDS011;10380;52.102;20.614;2024-01-30T06:28:27;23.53;;;12.70;;
20441;SDS011;10380;52.102;20.614;2024-01-30T06:30:54;23.57;;;11.87;;
20441;SDS011;10380;52.102;20.614;2024-01-30T06:33:21;23.13;;;12.37;;
20441;SDS011;10380;52.102;20.614;2024-01-30T06:35:49;28.80;;;13.13;;
20441;SDS011;10380;52.102;20.614;2024-01-30T06:38:16;21.37;;;11.23;;
20441;SDS011;10380;52.102;20.614;2024-01-30T06:40:44;21.17;;;12.60;;
20441;SDS011;10380;52.102;20.614;2024-01-30T06:43:11;23.07;;;12.70;;
20441;SDS011;10380;52.102;20.614;2024-01-30T06:45:38;22.17;;;11.87;;
20441;SDS011;10380;52.102;20.614;2024-01-30T06:48:07;22.80;;;12.30;;
20441;SDS011;10380;52.102;20.614;2024-01-30T06:50:34;21.77;;;12.23;;
20441;SDS011;10380;52.102;20.614;2024-01-30T06:53:01;23.53;;;12.00;;
20441;SDS011;10380;52.102;20.614;2024-01-30T06:55:28;23.23;;;12.07;;
20441;SDS011;10380;52.102;20.614;2024-01-30T06:57:56;22.17;;;12.37;;
20441;SDS011;10380;52.102;20.614;2024-01-30T07:00:23;23.40;;;12.77;;
20441;SDS011;10380;52.102;20.614;2024-01-30T07:02:50;19.70;;;10.53;;
20441;SDS011;10380;52.102;20.614;2024-01-30T07:05:17;27.50;;;12.80;;
20441;SDS011;10380;52.102;20.614;2024-01-30T07:07:45;24.43;;;11.60;;
20441;SDS011;10380;52.102;20.614;2024-01-30T07:10:12;24.17;;;11.53;;
20441;SDS011;10380;52.102;20.614;2024-01-30T07:12:40;23.60;;;12.60;;
20441;SDS011;10380;52.102;20.614;2024-01-30T07:15:07;22.30;;;13.50;;
20441;SDS011;10380;52.102;20.614;2024-01-30T07:17:35;21.73;;;12.27;;
20441;SDS011;10380;52.102;20.614;2024-01-30T07:20:04;20.97;;;12.43;;
20441;SDS011;10380;52.102;20.614;2024-01-30T07:22:32;24.20;;;12.10;;
20441;SDS011;10380;52.102;20.614;2024-01-30T07:25:00;24.00;;;12.43;;
20441;SDS011;10380;52.102;20.614;2024-01-30T07:27:28;21.33;;;12.60;;
20441;SDS011;10380;52.102;20.614;2024-01-30T07:29:55;20.80;;;11.10;;
20441;SDS011;10380;52.102;20.614;2024-01-30T07:32:23;20.53;;;11.57;;
20441;SDS011;10380;52.102;20.614;2024-01-30T07:34:50;25.03;;;12.20;;
20441;SDS011;10380;52.102;20.614;2024-01-30T07:37:32;21.03;;;11.07;;
20441;SDS011;10380;52.102;20.614;2024-01-30T07:39:59;21.57;;;11.77;;
20441;SDS011;10380;52.102;20.614;2024-01-30T07:42:28;21.53;;;11.40;;
20441;SDS011;10380;52.102;20.614;2024-01-30T07:44:55;21.57;;;11.47;;
20441;SDS011;10380;52.102;20.614;2024-01-30T07:47:22;19.33;;;11.33;;
20441;SDS011;10380;52.102;20.614;2024-01-30T07:49:50;21.20;;;11.13;;
20441;SDS011;10380;52.102;20.614;2024-01-30T07:52:18;21.23;;;11.37;;
20441;SDS011;10380;52.102;20.614;2024-01-30T07:54:45;21.07;;;11.87;;
20441;SDS011;10380;52.102;20.614;2024-01-30T07:57:12;19.47;;;10.13;;
20441;SDS011;10380;52.102;20.614;2024-01-30T07:59:41;22.23;;;11.77;;
20441;SDS011;10380;52.102;20.614;2024-01-30T08:02:13;19.57;;;10.43;;
20441;SDS011;10380;52.102;20.614;2024-01-30T08:04:40;20.77;;;10.33;;
20441;SDS011;10380;52.102;20.614;2024-01-30T08:07:08;17.83;;;10.43;;
20441;SDS011;10380;52.102;20.614;2024-01-30T08:09:35;16.63;;;9.73;;
20441;SDS011;10380;52.102;20.614;2024-01-30T08:12:03;20.20;;;10.10;;
20441;SDS011;10380;52.102;20.614;2024-01-30T08:14:30;23.40;;;11.13;;
20441;SDS011;10380;52.102;20.614;2024-01-30T08:16:58;19.37;;;10.93;;
20441;SDS011;10380;52.102;20.614;2024-01-30T08:19:25;21.33;;;9.33;;
20441;SDS011;10380;52.102;20.614;2024-01-30T08:21:53;19.07;;;10.13;;
20441;SDS011;10380;52.102;20.614;2024-01-30T08:24:20;17.23;;;9.60;;
20441;SDS011;10380;52.102;20.614;2024-01-30T08:26:47;17.90;;;9.83;;
20441;SDS011;10380;52.102;20.614;2024-01-30T08:29:15;19.90;;;11.03;;
20441;SDS011;10380;52.102;20.614;2024-01-30T08:31:42;20.70;;;11.23;;
20441;SDS011;10380;52.102;20.614;2024-01-30T08:34:10;14.90;;;9.47;;
20441;SDS011;10380;52.102;20.614;2024-01-30T08:36:38;18.53;;;10.47;;
20441;SDS011;10380;52.102;20.614;2024-01-30T08:39:05;18.70;;;10.17;;
20441;SDS011;10380;52.102;20.614;2024-01-30T08:41:32;15.57;;;10.20;;
20441;SDS011;10380;52.102;20.614;2024-01-30T08:43:59;17.30;;;10.47;;
20441;SDS011;10380;52.102;20.614;2024-01-30T08:46:27;19.33;;;10.70;;
20441;SDS011;10380;52.102;20.614;2024-01-30T08:48:54;14.87;;;9.83;;
20441;SDS011;10380;52.102;20.614;2024-01-30T08:51:21;22.10;;;10.97;;
20441;SDS011;10380;52.102;20.614;2024-01-30T08:53:48;16.47;;;9.87;;
20441;SDS011;10380;52.102;20.614;2024-01-30T08:56:17;17.80;;;9.93;;
20441;SDS011;10380;52.102;20.614;2024-01-30T08:58:45;18.00;;;9.80;;
20441;SDS011;10380;52.102;20.614;2024-01-30T09:01:14;14.67;;;9.57;;
20441;SDS011;10380;52.102;20.614;2024-01-30T09:03:41;20.17;;;9.83;;
20441;SDS011;10380;52.102;20.614;2024-01-30T09:06:12;17.17;;;9.97;;
20441;SDS011;10380;52.102;20.614;2024-01-30T09:08:39;21.30;;;10.00;;
20441;SDS011;10380;52.102;20.614;2024-01-30T09:11:10;19.83;;;10.43;;
20441;SDS011;10380;52.102;20.614;2024-01-30T09:13:40;14.13;;;9.23;;
20441;SDS011;10380;52.102;20.614;2024-01-30T09:16:07;15.37;;;9.47;;
20441;SDS011;10380;52.102;20.614;2024-01-30T09:18:34;15.40;;;9.57;;
20441;SDS011;10380;52.102;20.614;2024-01-30T09:21:02;16.40;;;9.57;;
20441;SDS011;10380;52.102;20.614;2024-01-30T09:23:29;20.50;;;10.70;;
20441;SDS011;10380;52.102;20.614;2024-01-30T09:25:56;18.80;;;10.23;;
20441;SDS011;10380;52.102;20.614;2024-01-30T09:28:23;22.83;;;10.60;;
20441;SDS011;10380;52.102;20.614;2024-01-30T09:30:53;14.10;;;8.73;;
20441;SDS011;10380;52.102;20.614;2024-01-30T09:33:20;18.10;;;10.70;;
20441;SDS011;10380;52.102;20.614;2024-01-30T09:35:48;16.83;;;9.20;;
20441;SDS011;10380;52.102;20.614;2024-01-30T09:38:15;17.17;;;9.23;;
20441;SDS011;10380;52.102;20.614;2024-01-30T09:40:42;18.33;;;11.00;;
20441;SDS011;10380;52.102;20.614;2024-01-30T09:43:11;17.87;;;9.57;;
20441;SDS011;10380;52.102;20.614;2024-01-30T09:45:43;18.53;;;10.60;;
20441;SDS011;10380;52.102;20.614;2024-01-30T09:48:13;16.50;;;9.00;;
20441;SDS011;10380;52.102;20.614;2024-01-30T09:50:41;18.60;;;9.00;;
20441;SDS011;10380;52.102;20.614;2024-01-30T09:53:08;18.70;;;9.77;;
20441;SDS011;10380;52.102;20.614;2024-01-30T09:55:36;13.50;;;8.73;;
20441;SDS011;10380;52.102;20.614;2024-01-30T09:58:03;17.53;;;10.00;;
20441;SDS011;10380;52.102;20.614;2024-01-30T10:00:31;15.30;;;9.17;;
20441;SDS011;10380;52.102;20.614;2024-01-30T10:02:58;21.47;;;9.83;;
20441;SDS011;10380;52.102;20.614;2024-01-30T10:05:27;18.13;;;9.70;;
20441;SDS011;10380;52.102;20.614;2024-01-30T10:07:56;19.53;;;9.87;;
20441;SDS011;10380;52.102;20.614;2024-01-30T10:10:25;15.97;;;9.70;;
20441;SDS011;10380;52.102;20.614;2024-01-30T10:12:52;17.47;;;9.87;;
20441;SDS011;10380;52.102;20.614;2024-01-30T10:15:20;15.90;;;8.67;;
20441;SDS011;10380;52.102;20.614;2024-01-30T10:17:48;16.37;;;9.60;;
20441;SDS011;10380;52.102;20.614;2024-01-30T10:20:16;15.90;;;9.37;;
20441;SDS011;10380;52.102;20.614;2024-01-30T10:22:45;17.13;;;9.97;;
20441;SDS011;10380;52.102;20.614;2024-01-30T10:25:12;16.60;;;9.43;;
20441;SDS011;10380;52.102;20.614;2024-01-30T10:27:40;18.70;;;9.03;;
20441;SDS011;10380;52.102;20.614;2024-01-30T10:30:07;16.37;;;10.00;;
20441;SDS011;10380;52.102;20.614;2024-01-30T10:32:35;14.97;;;9.37;;
20441;SDS011;10380;52.102;20.614;2024-01-30T10:35:02;15.40;;;9.23;;
20441;SDS011;10380;52.102;20.614;2024-01-30T10:37:30;17.87;;;10.97;;
20441;SDS011;10380;52.102;20.614;2024-01-30T10:40:02;19.63;;;10.20;;
20441;SDS011;10380;52.102;20.614;2024-01-30T10:42:32;19.27;;;10.70;;
20441;SDS011;10380;52.102;20.614;2024-01-30T10:45:07;17.50;;;10.23;;
20441;SDS011;10380;52.102;20.614;2024-01-30T10:47:36;14.07;;;8.80;;
20441;SDS011;10380;52.102;20.614;2024-01-30T10:50:04;17.90;;;10.33;;
20441;SDS011;10380;52.102;20.614;2024-01-30T10:52:32;17.60;;;10.43;;
20441;SDS011;10380;52.102;20.614;2024-01-30T10:55:00;18.13;;;10.17;;
20441;SDS011;10380;52.102;20.614;2024-01-30T10:57:27;15.63;;;10.33;;
20441;SDS011;10380;52.102;20.614;2024-01-30T10:59:58;18.73;;;10.70;;
20441;SDS011;10380;52.102;20.614;2024-01-30T11:02:26;18.70;;;10.80;;
20441;SDS011;10380;52.102;20.614;2024-01-30T11:04:56;23.07;;;10.50;;
20441;SDS011;10380;52.102;20.614;2024-01-30T11:07:28;17.03;;;10.47;;
20441;SDS011;10380;52.102;20.614;2024-01-30T11:10:00;20.50;;;10.60;;
20441;SDS011;10380;52.102;20.614;2024-01-30T11:12:30;21.07;;;11.00;;
20441;SDS011;10380;52.102;20.614;2024-01-30T11:20:21;19.20;;;10.57;;
20441;SDS011;10380;52.102;20.614;2024-01-30T11:22:50;19.17;;;10.63;;
20441;SDS011;10380;52.102;20.614;2024-01-30T11:25:20;17.40;;;9.73;;
20441;SDS011;10380;52.102;20.614;2024-01-30T11:27:51;17.90;;;10.10;;
20441;SDS011;10380;52.102;20.614;2024-01-30T11:30:30;14.63;;;9.70;;
20441;SDS011;10380;52.102;20.614;2024-01-30T11:33:02;21.53;;;11.93;;
20441;SDS011;10380;52.102;20.614;2024-01-30T11:35:35;18.63;;;10.03;;
20441;SDS011;10380;52.102;20.614;2024-01-30T11:38:03;13.13;;;9.43;;
20441;SDS011;10380;52.102;20.614;2024-01-30T11:40:31;16.33;;;9.40;;
20441;SDS011;10380;52.102;20.614;2024-01-30T11:43:03;16.43;;;9.23;;
20441;SDS011;10380;52.102;20.614;2024-01-30T11:45:31;19.77;;;9.90;;
20441;SDS011;10380;52.102;20.614;2024-01-30T11:47:59;17.87;;;9.50;;
20441;SDS011;10380;52.102;20.614;2024-01-30T11:50:28;13.90;;;8.77;;
20441;SDS011;10380;52.102;20.614;2024-01-30T11:53:02;15.90;;;9.33;;
20441;SDS011;10380;52.102;20.614;2024-01-30T11:55:29;14.63;;;9.07;;
20441;SDS011;10380;52.102;20.614;2024-01-30T11:58:01;16.63;;;9.57;;
20441;SDS011;10380;52.102;20.614;2024-01-30T12:00:29;21.63;;;11.77;;
20441;SDS011;10380;52.102;20.614;2024-01-30T12:03:01;21.73;;;11.43;;
20441;SDS011;10380;52.102;20.614;2024-01-30T12:05:30;18.00;;;11.17;;
20441;SDS011;10380;52.102;20.614;2024-01-30T12:07:58;20.37;;;10.80;;
20441;SDS011;10380;52.102;20.614;2024-01-30T12:10:27;19.17;;;10.13;;
20441;SDS011;10380;52.102;20.614;2024-01-30T12:12:55;18.70;;;10.37;;
20441;SDS011;10380;52.102;20.614;2024-01-30T12:15:23;16.60;;;10.43;;
20441;SDS011;10380;52.102;20.614;2024-01-30T12:17:51;16.90;;;10.53;;
20441;SDS011;10380;52.102;20.614;2024-01-30T12:20:19;20.03;;;10.43;;
20441;SDS011;10380;52.102;20.614;2024-01-30T12:22:49;18.33;;;10.10;;
20441;SDS011;10380;52.102;20.614;2024-01-30T12:25:17;15.43;;;10.23;;
20441;SDS011;10380;52.102;20.614;2024-01-30T12:27:46;16.27;;;10.60;;
20441;SDS011;10380;52.102;20.614;2024-01-30T12:30:18;16.30;;;10.67;;
20441;SDS011;10380;52.102;20.614;2024-01-30T12:32:49;18.60;;;11.17;;
20441;SDS011;10380;52.102;20.614;2024-01-30T12:35:17;21.00;;;11.93;;
20441;SDS011;10380;52.102;20.614;2024-01-30T12:37:46;18.43;;;11.27;;
20441;SDS011;10380;52.102;20.614;2024-01-30T12:40:15;17.97;;;10.93;;
20441;SDS011;10380;52.102;20.614;2024-01-30T12:42:43;18.70;;;10.67;;
20441;SDS011;10380;52.102;20.614;2024-01-30T12:45:16;18.73;;;11.10;;
20441;SDS011;10380;52.102;20.614;2024-01-30T12:47:48;19.37;;;11.57;;
20441;SDS011;10380;52.102;20.614;2024-01-30T12:50:15;20.70;;;12.03;;
20441;SDS011;10380;52.102;20.614;2024-01-30T12:52:44;15.47;;;9.30;;
20441;SDS011;10380;52.102;20.614;2024-01-30T12:55:15;14.93;;;11.00;;
20441;SDS011;10380;52.102;20.614;2024-01-30T12:57:43;16.90;;;11.50;;
20441;SDS011;10380;52.102;20.614;2024-01-30T13:00:10;17.60;;;10.67;;
20441;SDS011;10380;52.102;20.614;2024-01-30T13:02:37;18.15;;;10.60;;
20441;SDS011;10380;52.102;20.614;2024-01-30T13:05:05;18.93;;;11.03;;
20441;SDS011;10380;52.102;20.614;2024-01-30T13:07:32;19.90;;;11.63;;
20441;SDS011;10380;52.102;20.614;2024-01-30T13:10:00;17.90;;;11.40;;
20441;SDS011;10380;52.102;20.614;2024-01-30T13:12:30;16.53;;;10.73;;
20441;SDS011;10380;52.102;20.614;2024-01-30T13:14:59;23.70;;;11.90;;
20441;SDS011;10380;52.102;20.614;2024-01-30T13:17:31;16.93;;;10.27;;
20441;SDS011;10380;52.102;20.614;2024-01-30T13:19:58;17.53;;;10.37;;
20441;SDS011;10380;52.102;20.614;2024-01-30T13:22:36;22.57;;;11.17;;
20441;SDS011;10380;52.102;20.614;2024-01-30T13:25:06;19.53;;;9.93;;
20441;SDS011;10380;52.102;20.614;2024-01-30T13:27:34;20.17;;;11.13;;
20441;SDS011;10380;52.102;20.614;2024-01-30T13:30:02;20.63;;;11.23;;
20441;SDS011;10380;52.102;20.614;2024-01-30T13:32:30;19.30;;;10.50;;
20441;SDS011;10380;52.102;20.614;2024-01-30T13:34:57;20.50;;;11.23;;
20441;SDS011;10380;52.102;20.614;2024-01-30T13:37:25;22.70;;;10.87;;
20441;SDS011;10380;52.102;20.614;2024-01-30T13:39:52;20.67;;;11.52;;
20441;SDS011;10380;52.102;20.614;2024-01-30T13:42:19;19.53;;;10.70;;
20441;SDS011;10380;52.102;20.614;2024-01-30T13:44:46;18.60;;;10.23;;
20441;SDS011;10380;52.102;20.614;2024-01-30T13:47:13;18.17;;;9.50;;
20441;SDS011;10380;52.102;20.614;2024-01-30T13:49:41;21.60;;;11.63;;
20441;SDS011;10380;52.102;20.614;2024-01-30T13:52:08;22.17;;;12.10;;
20441;SDS011;10380;52.102;20.614;2024-01-30T13:54:35;17.53;;;11.13;;
20441;SDS011;10380;52.102;20.614;2024-01-30T13:57:02;19.93;;;10.23;;
20441;SDS011;10380;52.102;20.614;2024-01-30T13:59:30;19.23;;;12.10;;
20441;SDS011;10380;52.102;20.614;2024-01-30T14:01:57;18.63;;;9.90;;
20441;SDS011;10380;52.102;20.614;2024-01-30T14:04:25;18.37;;;10.47;;
20441;SDS011;10380;52.102;20.614;2024-01-30T14:06:52;20.10;;;11.70;;
20441;SDS011;10380;52.102;20.614;2024-01-30T14:09:30;16.97;;;10.17;;
20441;SDS011;10380;52.102;20.614;2024-01-30T14:12:00;22.10;;;11.40;;
20441;SDS011;10380;52.102;20.614;2024-01-30T14:14:27;17.97;;;10.73;;
20441;SDS011;10380;52.102;20.614;2024-01-30T14:16:54;18.10;;;10.63;;
20441;SDS011;10380;52.102;20.614;2024-01-30T14:19:21;20.50;;;9.53;;
20441;SDS011;10380;52.102;20.614;2024-01-30T14:21:48;15.90;;;9.57;;